Jericho, Vermont
Current Conditions -  °F | °C
As of 4:54 PM on Tuesday 25 Nov 2014 (Local Time) from KBTV Reporting Station
Broken Clouds Broken Clouds  
Wind Chill: 41°   Ceiling: 6000
Heat Index: 45°   Visibility: 10mi
Dew Point: 23°   Wind: 8mph
Humidity: 42%   Direction: 230°SW
Pressure: 29.93"   Gusts: NA
Location:  44.5°N, 73°W
Report Text: KBTV 252154Z 23007KT 10SM BKN060 BKN100 07/M05 A2993 RMK AO2 SLP137 T00721050
Loading
Personal Weather Stations






























Interactive Weather Map New forecast layout! Learn more

10-Day Weather Forecast

Advertisements
Track Severe Weather on mobile